Time;durP1;ratioP1;P1;durP2;ratioP2;P2;SDS_P1;SDS_P2;PMS_P1;PMS_P2;Temp;Humidity;BMP_temperature;BMP_pressure;BME280_temperature;BME280_humidity;BME280_pressure;Samples;Min_cycle;Max_cycle;Signal;HPM_P1;HPM_P2
2023/10/07 00:01:22;;;;;;;;;;;14.00;80.70;;;;;;4961127;28;20059;-79
2023/10/07 00:03:50;;;;;;;;;;;13.90;80.80;;;;;;4968374;28;20039;-79
2023/10/07 00:06:17;;;;;;;;;;;13.90;80.70;;;;;;4965559;28;20072;-79
2023/10/07 00:08:44;;;;;;;;;;;13.90;80.90;;;;;;4964086;28;20001;-78
2023/10/07 00:11:11;;;;;;;;;;;13.90;80.90;;;;;;4963576;28;19977;-79
2023/10/07 00:13:41;;;;;;;;;;;13.90;80.90;;;;;;4956383;28;20590;-79
2023/10/07 00:16:10;;;;;;;;;;;13.90;80.90;;;;;;4960472;28;20447;-79
2023/10/07 00:18:38;;;;;;;;;;;13.80;81.80;;;;;;4962546;28;20476;-79
2023/10/07 00:21:07;;;;;;;;;;;13.80;81.10;;;;;;4963644;28;20005;-79
2023/10/07 00:23:35;;;;;;;;;;;13.80;81.30;;;;;;4964454;28;19985;-79
2023/10/07 00:26:07;;;;;;;;;;;13.80;81.40;;;;;;4963084;28;19984;-79
2023/10/07 00:28:35;;;;;;;;;;;13.80;81.50;;;;;;4963335;28;19993;-78
2023/10/07 00:31:03;;;;;;;;;;;13.80;81.60;;;;;;4961650;28;20004;-78
2023/10/07 00:33:30;;;;;;;;;;;13.70;81.70;;;;;;4964032;28;20725;-79
2023/10/07 00:36:04;;;;;;;;;;;13.70;81.90;;;;;;4967379;28;20014;-79
2023/10/07 00:38:37;;;;;;;;;;;13.70;82.00;;;;;;4961770;28;19997;-79
2023/10/07 00:41:04;;;;;;;;;;;13.70;82.10;;;;;;4961218;28;20492;-79
2023/10/07 00:43:32;;;;;;;;;;;13.70;82.20;;;;;;4961130;28;19985;-79
2023/10/07 00:46:10;;;;;;;;;;;13.70;82.20;;;;;;4960936;28;20372;-79
2023/10/07 00:48:52;;;;;;;;;;;13.70;82.30;;;;;;4960843;28;20034;-79
2023/10/07 00:51:33;;;;;;;;;;;13.60;82.20;;;;;;4956711;28;20075;-79
2023/10/07 00:54:15;;;;;;;;;;;13.70;82.30;;;;;;4959385;28;20088;-79
2023/10/07 00:56:43;;;;;;;;;;;13.70;82.30;;;;;;4969609;28;19977;-79
2023/10/07 00:59:13;;;;;;;;;;;13.60;82.30;;;;;;4955062;28;20093;-78
2023/10/07 01:01:45;;;;;;;;;;;13.60;82.40;;;;;;4960415;28;20446;-79
2023/10/07 01:04:15;;;;;;;;;;;13.60;82.60;;;;;;4964661;28;20343;-79
2023/10/07 01:06:45;;;;;;;;;;;13.60;82.80;;;;;;4961293;28;19985;-79
2023/10/07 01:09:14;;;;;;;;;;;13.60;83.00;;;;;;4961728;28;20510;-79
2023/10/07 01:11:42;;;;;;;;;;;13.60;83.10;;;;;;4959886;28;19981;-78
2023/10/07 01:14:11;;;;;;;;;;;13.60;83.20;;;;;;4962591;28;20580;-79
2023/10/07 01:16:42;;;;;;;;;;;13.60;83.40;;;;;;4960297;28;20060;-79
2023/10/07 01:19:27;;;;;;;;;;;13.60;83.50;;;;;;4959298;28;20493;-78
2023/10/07 01:21:58;;;;;;;;;;;13.50;83.50;;;;;;4959030;28;19981;-79
2023/10/07 01:24:46;;;;;;;;;;;13.60;83.60;;;;;;4959166;28;19977;-78
2023/10/07 01:27:21;;;;;;;;;;;13.60;83.60;;;;;;4956361;28;20545;-79
2023/10/07 01:29:59;;;;;;;;;;;13.50;83.70;;;;;;4957594;28;19997;-78
2023/10/07 01:32:31;;;;;;;;;;;13.50;83.80;;;;;;4956874;28;20000;-78
2023/10/07 01:35:04;;;;;;;;;;;13.50;83.80;;;;;;4958345;28;20039;-79
2023/10/07 01:37:41;;;;;;;;;;;13.50;83.90;;;;;;4949990;28;20028;-79
2023/10/07 01:40:13;;;;;;;;;;;13.50;84.10;;;;;;4959245;28;20008;-79
2023/10/07 01:42:44;;;;;;;;;;;13.50;84.20;;;;;;4960257;28;20047;-79
2023/10/07 01:45:19;;;;;;;;;;;13.50;84.30;;;;;;4947820;28;19977;-79
2023/10/07 01:47:47;;;;;;;;;;;13.50;84.30;;;;;;4977319;28;20004;-78
2023/10/07 01:50:15;;;;;;;;;;;13.50;84.60;;;;;;4961183;28;20038;-78
2023/10/07 01:52:45;;;;;;;;;;;13.50;84.60;;;;;;4959252;28;20234;-78
2023/10/07 01:55:13;;;;;;;;;;;13.50;84.60;;;;;;4954878;28;20354;-78
2023/10/07 01:57:40;;;;;;;;;;;13.50;84.70;;;;;;4958475;28;20084;-78
2023/10/07 02:00:08;;;;;;;;;;;13.40;84.70;;;;;;4958009;28;20089;-80
2023/10/07 02:02:42;;;;;;;;;;;13.40;84.80;;;;;;4959339;28;19988;-78
2023/10/07 02:05:12;;;;;;;;;;;13.40;84.80;;;;;;4960387;28;19985;-78
2023/10/07 02:07:39;;;;;;;;;;;13.50;84.90;;;;;;4958702;28;20005;-78
2023/10/07 02:10:06;;;;;;;;;;;13.40;84.90;;;;;;4958434;28;20472;-78
2023/10/07 02:12:35;;;;;;;;;;;13.40;85.00;;;;;;4957269;28;20081;-78
2023/10/07 02:15:10;;;;;;;;;;;13.40;85.00;;;;;;4958369;28;19985;-78
2023/10/07 02:17:37;;;;;;;;;;;13.40;84.90;;;;;;4955014;28;20083;-78
2023/10/07 02:20:21;;;;;;;;;;;13.40;85.00;;;;;;4960975;28;20470;-78
2023/10/07 02:22:48;;;;;;;;;;;13.50;85.20;;;;;;4957724;28;20016;-78
2023/10/07 02:25:20;;;;;;;;;;;13.40;85.10;;;;;;4953492;28;20022;-78
2023/10/07 02:27:49;;;;;;;;;;;13.40;85.20;;;;;;4955124;28;20013;-78
2023/10/07 02:30:19;;;;;;;;;;;13.40;85.30;;;;;;4959171;28;20748;-78
2023/10/07 02:32:47;;;;;;;;;;;13.40;85.30;;;;;;4958922;28;20015;-78
2023/10/07 02:35:19;;;;;;;;;;;13.40;85.30;;;;;;4960531;28;20694;-78
2023/10/07 02:37:49;;;;;;;;;;;13.30;85.20;;;;;;4971269;28;19996;-78
2023/10/07 02:40:19;;;;;;;;;;;13.30;85.10;;;;;;4961327;28;20037;-79
2023/10/07 02:42:46;;;;;;;;;;;13.30;85.20;;;;;;4954957;28;20703;-79
2023/10/07 02:45:20;;;;;;;;;;;13.30;85.10;;;;;;4958862;28;20714;-79
2023/10/07 02:47:47;;;;;;;;;;;13.30;85.00;;;;;;4956204;28;19997;-78
2023/10/07 02:50:14;;;;;;;;;;;13.30;85.00;;;;;;4951730;28;19982;-78
2023/10/07 02:52:45;;;;;;;;;;;13.20;85.00;;;;;;4954601;28;19981;-78
2023/10/07 02:55:28;;;;;;;;;;;13.20;85.00;;;;;;4958645;28;19989;-78
2023/10/07 02:57:56;;;;;;;;;;;13.20;84.80;;;;;;4961774;28;20036;-78
2023/10/07 03:00:35;;;;;;;;;;;13.20;84.60;;;;;;4960375;28;20437;-78
2023/10/07 03:03:18;;;;;;;;;;;13.20;84.50;;;;;;4962034;28;19991;-78
2023/10/07 03:05:45;;;;;;;;;;;13.20;84.50;;;;;;4959448;28;19977;-80
2023/10/07 03:08:19;;;;;;;;;;;13.20;84.60;;;;;;4962322;28;20100;-78
2023/10/07 03:10:54;;;;;;;;;;;13.20;84.40;;;;;;4959846;28;20426;-79
2023/10/07 03:13:22;;;;;;;;;;;13.20;84.40;;;;;;4952488;28;19985;-79
2023/10/07 03:16:09;;;;;;;;;;;13.20;84.40;;;;;;4956508;28;20009;-79
2023/10/07 03:18:38;;;;;;;;;;;13.20;84.40;;;;;;4961385;28;20000;-79
2023/10/07 03:21:10;;;;;;;;;;;13.20;84.60;;;;;;4958787;28;19993;-79
2023/10/07 03:23:45;;;;;;;;;;;13.10;84.40;;;;;;4960428;28;19992;-79
2023/10/07 03:26:12;;;;;;;;;;;13.10;84.50;;;;;;4955595;28;19985;-79
2023/10/07 03:28:51;;;;;;;;;;;13.10;84.40;;;;;;4957768;28;20442;-78
2023/10/07 03:31:20;;;;;;;;;;;13.10;84.30;;;;;;4956123;28;20119;-79
2023/10/07 03:33:49;;;;;;;;;;;13.10;84.30;;;;;;4964101;28;20007;-80
2023/10/07 03:39:23;;;;;;;;;;;13.10;84.20;;;;;;4894663;28;19990;-78
2023/10/07 03:41:52;;;;;;;;;;;13.10;84.10;;;;;;4945086;28;20066;-79
2023/10/07 03:44:19;;;;;;;;;;;13.10;84.20;;;;;;4961076;28;19999;-78
2023/10/07 03:46:48;;;;;;;;;;;13.00;84.00;;;;;;4960935;28;20000;-81
2023/10/07 03:49:15;;;;;;;;;;;13.00;83.90;;;;;;4956846;28;20000;-80
2023/10/07 03:51:42;;;;;;;;;;;13.00;83.70;;;;;;4965911;28;20092;-78
2023/10/07 03:54:11;;;;;;;;;;;13.00;83.80;;;;;;4956508;28;19985;-78
2023/10/07 03:56:38;;;;;;;;;;;13.00;83.70;;;;;;4962201;28;19981;-78
2023/10/07 03:59:05;;;;;;;;;;;13.00;83.80;;;;;;4961584;28;20008;-78
2023/10/07 04:01:32;;;;;;;;;;;13.00;83.80;;;;;;4975851;28;20082;-78
2023/10/07 04:04:00;;;;;;;;;;;13.00;83.60;;;;;;4962793;28;19973;-78
2023/10/07 04:06:30;;;;;;;;;;;13.00;83.50;;;;;;4963265;28;19992;-78
2023/10/07 04:09:05;;;;;;;;;;;12.90;83.50;;;;;;4963601;28;20048;-78
2023/10/07 04:11:33;;;;;;;;;;;12.90;83.30;;;;;;4976553;28;20050;-78
2023/10/07 04:14:06;;;;;;;;;;;12.90;83.30;;;;;;4964822;28;19985;-78
2023/10/07 04:16:33;;;;;;;;;;;13.00;83.40;;;;;;4960398;28;20399;-79
2023/10/07 04:19:30;;;;;;;;;;;13.00;83.30;;;;;;4966010;28;20347;-78
2023/10/07 04:21:55;;;;;;;;;;;12.90;83.30;;;;;;4964298;28;20008;-78
2023/10/07 04:24:24;;;;;;;;;;;12.90;83.30;;;;;;4961947;28;19977;-78
2023/10/07 04:26:54;;;;;;;;;;;12.90;83.40;;;;;;4974123;28;19985;-79
2023/10/07 04:29:21;;;;;;;;;;;12.90;83.40;;;;;;4959586;28;20090;-78
2023/10/07 04:31:51;;;;;;;;;;;12.90;83.40;;;;;;4964576;28;20507;-78
2023/10/07 04:34:21;;;;;;;;;;;12.90;83.40;;;;;;4958803;28;19984;-78
2023/10/07 04:37:11;;;;;;;;;;;12.90;84.10;;;;;;4967361;28;20076;-79
2023/10/07 04:39:39;;;;;;;;;;;12.90;83.50;;;;;;4959476;28;20507;-78
2023/10/07 04:42:05;;;;;;;;;;;12.90;83.60;;;;;;4968475;28;20001;-78
2023/10/07 04:47:29;;;;;;;;;;;12.90;83.60;;;;;;4958513;28;20688;-78
2023/10/07 04:50:06;;;;;;;;;;;12.80;83.50;;;;;;4962101;28;19989;-78
2023/10/07 04:52:33;;;;;;;;;;;12.90;83.60;;;;;;4960853;28;19981;-78
2023/10/07 04:55:00;;;;;;;;;;;12.90;83.40;;;;;;4966367;28;20016;-78
2023/10/07 04:57:44;;;;;;;;;;;12.80;83.30;;;;;;4976764;28;20082;-78
2023/10/07 05:00:27;;;;;;;;;;;12.80;83.50;;;;;;4961691;28;19985;-79
2023/10/07 05:02:57;;;;;;;;;;;12.80;83.30;;;;;;4962482;28;20749;-79
2023/10/07 05:05:25;;;;;;;;;;;12.80;83.10;;;;;;4973740;28;19983;-78
2023/10/07 05:07:56;;;;;;;;;;;12.80;83.20;;;;;;4963172;28;20001;-78
2023/10/07 05:10:22;;;;;;;;;;;12.80;83.30;;;;;;4957501;28;19977;-78
2023/10/07 05:12:51;;;;;;;;;;;12.80;83.30;;;;;;4961117;28;20042;-78
2023/10/07 05:15:18;;;;;;;;;;;12.70;83.20;;;;;;4957595;28;19977;-80
2023/10/07 05:17:44;;;;;;;;;;;12.80;83.20;;;;;;4962230;28;19989;-78
2023/10/07 05:20:27;;;;;;;;;;;12.80;83.20;;;;;;4958184;28;20024;-78
2023/10/07 05:22:55;;;;;;;;;;;12.70;83.10;;;;;;4961896;28;20631;-78
2023/10/07 05:25:22;;;;;;;;;;;12.70;82.90;;;;;;4963245;28;19974;-78
2023/10/07 05:27:50;;;;;;;;;;;12.70;83.00;;;;;;4960709;28;19997;-78
2023/10/07 05:30:18;;;;;;;;;;;12.70;82.80;;;;;;4959340;28;19981;-78
2023/10/07 05:32:45;;;;;;;;;;;12.70;82.90;;;;;;4962726;28;19981;-79
2023/10/07 05:35:15;;;;;;;;;;;12.70;82.80;;;;;;4960050;28;19977;-78
2023/10/07 05:37:44;;;;;;;;;;;12.70;82.70;;;;;;4960291;28;20736;-78
2023/10/07 05:40:19;;;;;;;;;;;12.70;82.70;;;;;;4959903;28;20424;-78
2023/10/07 05:42:46;;;;;;;;;;;12.70;82.70;;;;;;4958798;28;20077;-78
2023/10/07 05:45:14;;;;;;;;;;;12.60;82.50;;;;;;4961737;28;19985;-78
2023/10/07 05:47:43;;;;;;;;;;;12.70;82.60;;;;;;4960255;28;19997;-78
2023/10/07 05:50:10;;;;;;;;;;;12.60;82.70;;;;;;4955212;28;19985;-79
2023/10/07 05:52:36;;;;;;;;;;;12.70;82.60;;;;;;4971758;28;20741;-82
2023/10/07 05:55:06;;;;;;;;;;;12.60;82.60;;;;;;4968892;28;19981;-78
2023/10/07 05:57:34;;;;;;;;;;;12.60;82.50;;;;;;4964142;28;20075;-78
2023/10/07 06:00:01;;;;;;;;;;;12.60;82.50;;;;;;4967310;28;19993;-78
2023/10/07 06:02:30;;;;;;;;;;;12.60;82.70;;;;;;4962537;28;20439;-78
2023/10/07 06:04:57;;;;;;;;;;;12.60;82.60;;;;;;4962155;28;20021;-77
2023/10/07 06:07:25;;;;;;;;;;;12.60;82.60;;;;;;4962271;28;20007;-78
2023/10/07 06:09:52;;;;;;;;;;;12.60;82.60;;;;;;4960012;28;19988;-78
2023/10/07 06:12:21;;;;;;;;;;;12.60;82.50;;;;;;4960642;28;19973;-78
2023/10/07 06:14:49;;;;;;;;;;;12.60;82.60;;;;;;4961413;28;19996;-77
2023/10/07 06:17:15;;;;;;;;;;;12.60;82.50;;;;;;4959723;28;20005;-79
2023/10/07 06:19:43;;;;;;;;;;;12.60;82.40;;;;;;4961553;28;19981;-78
2023/10/07 06:22:12;;;;;;;;;;;12.60;82.40;;;;;;4963846;28;19996;-79
2023/10/07 06:24:39;;;;;;;;;;;12.70;82.40;;;;;;4960952;28;19988;-78
2023/10/07 06:27:07;;;;;;;;;;;12.60;82.40;;;;;;4958861;28;20397;-79
2023/10/07 06:29:34;;;;;;;;;;;12.60;82.30;;;;;;4960032;28;19981;-77
2023/10/07 06:32:22;;;;;;;;;;;12.60;82.30;;;;;;4958862;28;20005;-79
2023/10/07 06:34:51;;;;;;;;;;;12.60;83.00;;;;;;4966604;28;20101;-78
2023/10/07 06:37:21;;;;;;;;;;;12.70;82.30;;;;;;4959913;28;20087;-79
2023/10/07 06:39:48;;;;;;;;;;;12.70;82.30;;;;;;4957693;28;20133;-79
2023/10/07 06:42:17;;;;;;;;;;;12.70;82.30;;;;;;4969988;28;20004;-78
2023/10/07 06:44:47;;;;;;;;;;;12.60;82.30;;;;;;4961748;28;19985;-78
2023/10/07 06:47:16;;;;;;;;;;;12.60;82.40;;;;;;4960451;28;20083;-78
2023/10/07 06:49:42;;;;;;;;;;;12.60;82.50;;;;;;4960347;28;19981;-78
2023/10/07 06:52:12;;;;;;;;;;;12.60;82.50;;;;;;4960832;28;19988;-80
2023/10/07 06:54:39;;;;;;;;;;;12.70;82.60;;;;;;4960886;28;19981;-79
2023/10/07 06:57:10;;;;;;;;;;;12.70;82.60;;;;;;4960744;28;20035;-78
2023/10/07 06:59:40;;;;;;;;;;;12.70;82.50;;;;;;4960320;28;19988;-79
2023/10/07 07:02:06;;;;;;;;;;;12.60;82.50;;;;;;4956136;28;20092;-79
2023/10/07 07:04:35;;;;;;;;;;;12.70;82.70;;;;;;4958682;28;20076;-78
2023/10/07 07:07:11;;;;;;;;;;;12.60;82.60;;;;;;4961426;28;20028;-80
2023/10/07 07:09:50;;;;;;;;;;;12.60;82.60;;;;;;4958195;28;20024;-80
2023/10/07 07:12:18;;;;;;;;;;;12.60;82.70;;;;;;4959691;28;20324;-78
2023/10/07 07:14:50;;;;;;;;;;;12.60;82.70;;;;;;4958072;28;19992;-79
2023/10/07 07:22:50;;;;;;;;;;;12.60;82.70;;;;;;4975572;28;20318;-78
2023/10/07 07:25:23;;;;;;;;;;;12.70;82.60;;;;;;4957986;28;19988;-79
2023/10/07 07:27:48;;;;;;;;;;;12.60;82.60;;;;;;4962175;28;19997;-78
2023/10/07 07:30:19;;;;;;;;;;;12.60;82.60;;;;;;4960960;28;19981;-80
2023/10/07 07:32:55;;;;;;;;;;;12.70;82.70;;;;;;4962415;28;20517;-78
2023/10/07 07:35:37;;;;;;;;;;;12.70;82.60;;;;;;4963058;28;20470;-78
2023/10/07 07:38:05;;;;;;;;;;;12.70;82.70;;;;;;4963884;28;20004;-78
2023/10/07 07:40:37;;;;;;;;;;;12.70;82.70;;;;;;4958738;28;20586;-78
2023/10/07 07:43:07;;;;;;;;;;;12.70;83.30;;;;;;4968380;28;20001;-78
2023/10/07 07:45:35;;;;;;;;;;;12.70;82.70;;;;;;4960625;28;20008;-78
2023/10/07 07:48:06;;;;;;;;;;;12.70;82.50;;;;;;4957936;28;20001;-78
2023/10/07 07:50:35;;;;;;;;;;;12.70;82.50;;;;;;4961330;28;19977;-78
2023/10/07 07:53:06;;;;;;;;;;;12.70;82.50;;;;;;4958974;28;19985;-78
2023/10/07 07:55:34;;;;;;;;;;;12.70;82.50;;;;;;4957723;28;19984;-77
2023/10/07 07:58:02;;;;;;;;;;;12.70;82.60;;;;;;4963031;28;19993;-78
2023/10/07 08:00:31;;;;;;;;;;;12.80;82.60;;;;;;4962107;28;20082;-78
2023/10/07 08:02:58;;;;;;;;;;;12.70;82.50;;;;;;4962510;28;20125;-78
2023/10/07 08:05:28;;;;;;;;;;;12.70;82.60;;;;;;4964327;28;20612;-78
2023/10/07 08:07:58;;;;;;;;;;;12.70;82.50;;;;;;4960810;28;20001;-78
2023/10/07 08:10:26;;;;;;;;;;;12.80;82.60;;;;;;4957026;28;20756;-80
2023/10/07 08:12:53;;;;;;;;;;;12.80;82.60;;;;;;4958770;28;20078;-78
2023/10/07 08:15:23;;;;;;;;;;;12.80;82.60;;;;;;4958191;28;20445;-78
2023/10/07 08:17:52;;;;;;;;;;;12.80;82.70;;;;;;4974976;28;20480;-78
2023/10/07 08:20:27;;;;;;;;;;;12.80;82.70;;;;;;4963307;28;20404;-78
2023/10/07 08:22:54;;;;;;;;;;;12.90;82.70;;;;;;4960414;28;20001;-79
2023/10/07 08:25:36;;;;;;;;;;;12.90;82.70;;;;;;4963039;28;20863;-78
2023/10/07 08:28:18;;;;;;;;;;;12.90;82.70;;;;;;4959191;28;20001;-78
2023/10/07 08:30:46;;;;;;;;;;;12.90;82.70;;;;;;4958464;28;20004;-78
2023/10/07 08:33:15;;;;;;;;;;;13.00;82.80;;;;;;4960308;28;19995;-79
2023/10/07 08:35:43;;;;;;;;;;;13.00;82.80;;;;;;4957762;28;20840;-78
2023/10/07 08:38:21;;;;;;;;;;;13.00;82.80;;;;;;4961823;28;19997;-79
2023/10/07 08:40:59;;;;;;;;;;;13.00;82.70;;;;;;4954994;28;19981;-77
2023/10/07 08:43:32;;;;;;;;;;;13.00;82.70;;;;;;4956941;28;20521;-78
2023/10/07 08:46:01;;;;;;;;;;;13.10;82.60;;;;;;4959756;28;20103;-78
2023/10/07 08:48:28;;;;;;;;;;;13.10;82.60;;;;;;4964654;28;20043;-78
2023/10/07 08:50:56;;;;;;;;;;;13.10;82.50;;;;;;4957476;28;19981;-78
2023/10/07 08:53:23;;;;;;;;;;;13.10;82.50;;;;;;4957881;28;20367;-77
2023/10/07 08:55:53;;;;;;;;;;;13.20;82.50;;;;;;4958155;28;19988;-80
2023/10/07 08:58:21;;;;;;;;;;;13.20;82.40;;;;;;4957236;28;19997;-78
2023/10/07 09:00:50;;;;;;;;;;;13.20;82.40;;;;;;4959370;28;20014;-78
2023/10/07 09:03:19;;;;;;;;;;;13.20;82.40;;;;;;4959371;28;20041;-78
2023/10/07 09:05:47;;;;;;;;;;;13.20;82.30;;;;;;4958166;28;19981;-78
2023/10/07 09:08:15;;;;;;;;;;;13.30;82.40;;;;;;4962631;28;20083;-78
2023/10/07 09:10:45;;;;;;;;;;;13.20;82.40;;;;;;4958331;28;20387;-78
2023/10/07 09:13:19;;;;;;;;;;;13.30;82.40;;;;;;4960247;28;20027;-77
2023/10/07 09:15:52;;;;;;;;;;;13.30;82.50;;;;;;4958632;28;20020;-78
2023/10/07 09:18:23;;;;;;;;;;;13.30;82.40;;;;;;4961113;28;19997;-78
2023/10/07 09:20:50;;;;;;;;;;;13.40;82.50;;;;;;4965428;28;19993;-79
2023/10/07 09:23:19;;;;;;;;;;;13.40;82.30;;;;;;4977820;28;20004;-78
2023/10/07 09:25:50;;;;;;;;;;;13.30;82.30;;;;;;4956086;28;20759;-79
2023/10/07 09:28:21;;;;;;;;;;;13.40;82.30;;;;;;4959105;28;20103;-78
2023/10/07 09:30:48;;;;;;;;;;;13.40;82.30;;;;;;4959423;28;20012;-78
2023/10/07 09:33:17;;;;;;;;;;;13.40;82.30;;;;;;4961593;28;19993;-77
2023/10/07 09:35:46;;;;;;;;;;;13.40;82.30;;;;;;4962413;28;19981;-78
2023/10/07 09:38:22;;;;;;;;;;;13.40;82.20;;;;;;4962100;28;20472;-79
2023/10/07 09:43:47;;;;;;;;;;;13.50;82.20;;;;;;4945041;28;19997;-78
2023/10/07 09:46:15;;;;;;;;;;;13.50;82.20;;;;;;4961209;28;20003;-78
2023/10/07 09:48:43;;;;;;;;;;;13.50;82.10;;;;;;4960453;28;20042;-78
2023/10/07 09:51:22;;;;;;;;;;;13.60;82.20;;;;;;4960204;28;20119;-78
2023/10/07 09:53:58;;;;;;;;;;;13.60;82.10;;;;;;4967287;28;20050;-78
2023/10/07 09:56:29;;;;;;;;;;;13.60;82.10;;;;;;4967155;28;19981;-78
2023/10/07 09:59:15;;;;;;;;;;;13.60;82.10;;;;;;4958739;28;19993;-78
2023/10/07 10:01:54;;;;;;;;;;;13.70;82.20;;;;;;4960836;28;19996;-79
2023/10/07 10:04:40;;;;;;;;;;;13.70;82.00;;;;;;4961035;28;20085;-78
2023/10/07 10:07:21;;;;;;;;;;;13.80;82.10;;;;;;4956098;28;19986;-79
2023/10/07 10:10:05;;;;;;;;;;;13.80;82.00;;;;;;4955886;28;19988;-78
2023/10/07 10:12:56;;;;;;;;;;;13.80;82.00;;;;;;4955168;28;20000;-78
2023/10/07 10:15:51;;;;;;;;;;;13.80;82.00;;;;;;4976597;28;19986;-78
2023/10/07 10:18:35;;;;;;;;;;;13.90;82.00;;;;;;4961408;28;20005;-78
2023/10/07 10:21:04;;;;;;;;;;;13.90;82.00;;;;;;4960026;28;19983;-77
2023/10/07 10:23:33;;;;;;;;;;;13.90;81.90;;;;;;4960038;28;20004;-77
2023/10/07 10:26:13;;;;;;;;;;;13.90;81.80;;;;;;4958613;28;19991;-77
2023/10/07 10:28:41;;;;;;;;;;;14.00;81.80;;;;;;4956814;28;20001;-78
2023/10/07 10:31:19;;;;;;;;;;;14.00;81.70;;;;;;4954315;28;20024;-79
2023/10/07 10:33:49;;;;;;;;;;;14.00;81.70;;;;;;4963294;28;19988;-78
2023/10/07 10:36:19;;;;;;;;;;;14.10;81.60;;;;;;4963889;28;20072;-78
2023/10/07 10:38:46;;;;;;;;;;;14.10;81.60;;;;;;4963305;28;20001;-78
2023/10/07 10:41:13;;;;;;;;;;;14.10;81.40;;;;;;4957246;28;19984;-78
2023/10/07 10:43:40;;;;;;;;;;;14.20;81.50;;;;;;4960489;28;19997;-78
2023/10/07 10:46:07;;;;;;;;;;;14.20;81.50;;;;;;4961826;28;20019;-77
2023/10/07 10:48:37;;;;;;;;;;;14.20;81.40;;;;;;4958806;28;19997;-78
2023/10/07 10:51:05;;;;;;;;;;;14.30;81.50;;;;;;4962222;28;19977;-78
2023/10/07 10:53:32;;;;;;;;;;;14.30;81.40;;;;;;4957175;28;20574;-78
2023/10/07 10:55:59;;;;;;;;;;;14.40;81.40;;;;;;4961195;28;19981;-78
2023/10/07 10:58:26;;;;;;;;;;;14.30;81.20;;;;;;4954804;28;20025;-78
2023/10/07 11:00:54;;;;;;;;;;;14.30;81.30;;;;;;4959340;28;19993;-78
2023/10/07 11:03:23;;;;;;;;;;;14.40;81.10;;;;;;4962089;28;20058;-78
2023/10/07 11:05:53;;;;;;;;;;;14.40;81.00;;;;;;4963437;28;20104;-78
2023/10/07 11:08:23;;;;;;;;;;;14.40;81.00;;;;;;4961290;28;20005;-78
2023/10/07 11:10:51;;;;;;;;;;;14.50;81.20;;;;;;4966628;28;19981;-79
2023/10/07 11:13:18;;;;;;;;;;;14.50;80.90;;;;;;4961959;28;19986;-79
2023/10/07 11:15:58;;;;;;;;;;;14.50;81.00;;;;;;4962586;28;20067;-78
2023/10/07 11:18:25;;;;;;;;;;;14.50;80.90;;;;;;4964251;28;20422;-80
2023/10/07 11:20:54;;;;;;;;;;;14.50;80.90;;;;;;4961778;28;20544;-78
2023/10/07 11:23:22;;;;;;;;;;;14.60;81.10;;;;;;4963799;28;20007;-78
2023/10/07 11:25:50;;;;;;;;;;;14.60;80.80;;;;;;4963363;28;20001;-78
2023/10/07 11:28:22;;;;;;;;;;;14.60;81.00;;;;;;4964312;28;20001;-79
2023/10/07 11:30:51;;;;;;;;;;;14.60;81.00;;;;;;4959432;28;20005;-79
2023/10/07 11:33:19;;;;;;;;;;;14.70;80.90;;;;;;4963147;28;19981;-79
2023/10/07 11:35:58;;;;;;;;;;;14.70;80.80;;;;;;4961519;28;20082;-79
2023/10/07 11:38:26;;;;;;;;;;;14.60;80.90;;;;;;4962383;28;20032;-78
2023/10/07 11:40:52;;;;;;;;;;;14.70;80.80;;;;;;4962706;28;19985;-78
2023/10/07 11:43:19;;;;;;;;;;;14.70;80.60;;;;;;4966731;28;20004;-79
2023/10/07 11:45:47;;;;;;;;;;;14.80;80.80;;;;;;4960377;28;20720;-78
2023/10/07 11:48:14;;;;;;;;;;;14.80;80.60;;;;;;4963724;28;20676;-78
2023/10/07 11:50:41;;;;;;;;;;;14.80;80.60;;;;;;4961869;28;19985;-78
2023/10/07 11:53:09;;;;;;;;;;;14.90;80.50;;;;;;4962945;28;20049;-79
2023/10/07 11:55:36;;;;;;;;;;;14.80;80.30;;;;;;4962957;28;20757;-79
2023/10/07 11:58:03;;;;;;;;;;;14.90;80.30;;;;;;4956749;28;20913;-78
2023/10/07 12:00:34;;;;;;;;;;;14.90;80.10;;;;;;4954879;28;20004;-78
2023/10/07 12:03:06;;;;;;;;;;;15.00;80.20;;;;;;4959693;28;19996;-78
2023/10/07 12:05:34;;;;;;;;;;;15.00;79.90;;;;;;4957927;28;20462;-79
2023/10/07 12:08:01;;;;;;;;;;;15.10;80.00;;;;;;4956359;28;20092;-78
2023/10/07 12:10:30;;;;;;;;;;;15.10;79.50;;;;;;4963229;28;20458;-79
2023/10/07 12:12:58;;;;;;;;;;;15.10;79.50;;;;;;4959415;28;19997;-79
2023/10/07 12:15:25;;;;;;;;;;;15.10;79.50;;;;;;4961247;28;20064;-78
2023/10/07 12:17:52;;;;;;;;;;;15.20;79.50;;;;;;4960230;28;19997;-78
2023/10/07 12:20:20;;;;;;;;;;;15.20;79.20;;;;;;4959827;28;20348;-79
2023/10/07 12:22:46;;;;;;;;;;;15.20;79.30;;;;;;4960089;28;19992;-78
2023/10/07 12:25:16;;;;;;;;;;;15.30;79.20;;;;;;4962729;28;19977;-78
2023/10/07 12:27:44;;;;;;;;;;;15.30;78.90;;;;;;4963877;28;20012;-78
2023/10/07 12:30:11;;;;;;;;;;;15.30;79.10;;;;;;4962798;28;19977;-79
2023/10/07 12:32:39;;;;;;;;;;;15.40;79.00;;;;;;4960063;28;20017;-78
2023/10/07 12:35:09;;;;;;;;;;;15.40;79.00;;;;;;4960971;28;20519;-78
2023/10/07 12:37:38;;;;;;;;;;;15.40;79.00;;;;;;4957766;28;19993;-77
2023/10/07 12:40:10;;;;;;;;;;;15.40;79.00;;;;;;4956842;28;20323;-77
2023/10/07 12:42:37;;;;;;;;;;;15.50;78.70;;;;;;4968965;28;20001;-79
2023/10/07 12:45:06;;;;;;;;;;;15.50;78.70;;;;;;4963846;28;20004;-79
2023/10/07 12:47:32;;;;;;;;;;;15.60;78.40;;;;;;4963529;28;19997;-77
2023/10/07 12:49:59;;;;;;;;;;;15.60;78.50;;;;;;4963113;28;20435;-78
2023/10/07 12:52:26;;;;;;;;;;;15.60;78.50;;;;;;4961227;28;20004;-78
2023/10/07 12:54:53;;;;;;;;;;;15.60;78.10;;;;;;4962332;28;20403;-78
2023/10/07 12:57:19;;;;;;;;;;;15.70;78.10;;;;;;4965913;28;19993;-78
2023/10/07 12:59:52;;;;;;;;;;;15.80;78.10;;;;;;4966231;28;20399;-79
2023/10/07 13:02:20;;;;;;;;;;;15.80;77.80;;;;;;4960391;28;20463;-79
2023/10/07 13:04:54;;;;;;;;;;;15.80;77.40;;;;;;4962288;28;20088;-78
2023/10/07 13:07:21;;;;;;;;;;;15.90;77.40;;;;;;4961413;28;20096;-80
2023/10/07 13:09:48;;;;;;;;;;;15.90;77.50;;;;;;4964253;28;19992;-79
2023/10/07 13:12:15;;;;;;;;;;;16.00;77.40;;;;;;4964374;28;20486;-79
2023/10/07 13:14:42;;;;;;;;;;;16.00;77.20;;;;;;4966188;28;19985;-79
2023/10/07 13:17:13;;;;;;;;;;;16.00;77.10;;;;;;4962686;28;20066;-79
2023/10/07 13:19:43;;;;;;;;;;;16.10;77.00;;;;;;4963219;28;19989;-80
2023/10/07 13:22:10;;;;;;;;;;;16.10;77.00;;;;;;4964028;28;19988;-79
2023/10/07 13:24:37;;;;;;;;;;;16.20;76.60;;;;;;4964272;28;19992;-79
2023/10/07 13:27:04;;;;;;;;;;;16.20;76.20;;;;;;4961591;28;21623;-78
2023/10/07 13:29:34;;;;;;;;;;;16.30;76.70;;;;;;4964114;28;20037;-78
2023/10/07 13:32:03;;;;;;;;;;;16.30;76.70;;;;;;4959518;28;20134;-78
2023/10/07 13:34:30;;;;;;;;;;;16.30;76.70;;;;;;4960619;28;19981;-78
2023/10/07 13:36:59;;;;;;;;;;;16.40;76.50;;;;;;4961712;28;19992;-78
2023/10/07 13:39:25;;;;;;;;;;;16.40;76.40;;;;;;4958095;28;19985;-79
2023/10/07 13:41:52;;;;;;;;;;;16.40;76.10;;;;;;4970979;28;19983;-79
2023/10/07 13:44:22;;;;;;;;;;;16.50;76.40;;;;;;4962724;28;20475;-79
2023/10/07 13:46:50;;;;;;;;;;;16.50;76.20;;;;;;4960992;28;19997;-79
2023/10/07 13:49:16;;;;;;;;;;;16.50;76.30;;;;;;4956791;28;20044;-79
2023/10/07 13:51:44;;;;;;;;;;;16.50;76.10;;;;;;4962407;28;19992;-79
2023/10/07 13:54:38;;;;;;;;;;;16.60;76.10;;;;;;4962825;28;20008;-79
2023/10/07 13:57:12;;;;;;;;;;;16.60;75.90;;;;;;4957620;28;20721;-78
2023/10/07 13:59:42;;;;;;;;;;;16.70;76.00;;;;;;4958149;28;20707;-78
2023/10/07 14:02:13;;;;;;;;;;;16.70;75.80;;;;;;4954717;28;20001;-79
2023/10/07 14:04:39;;;;;;;;;;;16.80;75.70;;;;;;4961618;28;20103;-79
2023/10/07 14:07:06;;;;;;;;;;;16.80;75.60;;;;;;4974891;28;19981;-79
2023/10/07 14:09:38;;;;;;;;;;;16.90;75.80;;;;;;4959709;28;19992;-78
2023/10/07 14:12:06;;;;;;;;;;;16.90;75.20;;;;;;4962532;28;20024;-80
2023/10/07 14:14:33;;;;;;;;;;;16.90;75.30;;;;;;4958708;28;19982;-79
2023/10/07 14:17:00;;;;;;;;;;;16.90;75.00;;;;;;4960185;28;19996;-77
2023/10/07 14:19:28;;;;;;;;;;;17.00;75.10;;;;;;4957658;28;19985;-80
2023/10/07 14:21:55;;;;;;;;;;;17.00;75.10;;;;;;4958946;28;20011;-78
2023/10/07 14:24:27;;;;;;;;;;;17.00;74.70;;;;;;4960254;28;19996;-80
2023/10/07 14:26:56;;;;;;;;;;;17.10;74.70;;;;;;4959571;28;19987;-80
2023/10/07 14:29:22;;;;;;;;;;;17.10;75.00;;;;;;4960811;28;20047;-79
2023/10/07 14:31:51;;;;;;;;;;;17.20;74.80;;;;;;4959628;28;20474;-78
2023/10/07 14:34:18;;;;;;;;;;;17.20;74.30;;;;;;4957716;28;19985;-78
2023/10/07 14:36:45;;;;;;;;;;;17.20;74.50;;;;;;4958293;28;19977;-79
2023/10/07 14:39:13;;;;;;;;;;;17.30;74.10;;;;;;4953250;28;20041;-78
2023/10/07 14:41:41;;;;;;;;;;;17.30;74.00;;;;;;4961410;28;20042;-78
2023/10/07 14:44:10;;;;;;;;;;;17.40;74.10;;;;;;4955950;28;20063;-78
2023/10/07 14:46:38;;;;;;;;;;;17.40;73.80;;;;;;4956777;28;20051;-78
2023/10/07 14:49:05;;;;;;;;;;;17.40;73.40;;;;;;4975722;28;20008;-78